createdAt,value
2018-09-14T00:00:40.674Z,19.25
2018-09-14T00:03:09.685Z,19.22
2018-09-14T00:05:38.950Z,19.42
2018-09-14T00:08:07.900Z,19.23
2018-09-14T00:10:37.140Z,19.35
2018-09-14T00:13:06.125Z,19.46
2018-09-14T00:15:35.299Z,19.29
2018-09-14T00:18:04.428Z,19.49
2018-09-14T00:20:33.451Z,19.15
2018-09-14T00:23:02.392Z,19.24
2018-09-14T00:25:31.460Z,19.32
2018-09-14T00:28:00.961Z,19.19
2018-09-14T00:30:29.923Z,19.15
2018-09-14T00:32:59.141Z,19.13
2018-09-14T00:35:28.521Z,18.95
2018-09-14T00:37:57.937Z,18.90
2018-09-14T00:40:26.879Z,18.73
2018-09-14T00:42:56.012Z,18.83
2018-09-14T00:45:25.264Z,18.83
2018-09-14T00:47:54.244Z,18.73
2018-09-14T00:50:23.350Z,18.63
2018-09-14T00:52:52.341Z,18.51
2018-09-14T00:55:21.530Z,18.55
2018-09-14T00:57:51.160Z,18.64
2018-09-14T01:00:20.215Z,18.60
2018-09-14T01:02:49.343Z,18.54
2018-09-14T01:05:18.414Z,18.40
2018-09-14T01:07:47.380Z,18.33
2018-09-14T01:10:16.375Z,18.25
2018-09-14T01:12:45.391Z,18.35
2018-09-14T01:15:14.290Z,18.31
2018-09-14T01:17:43.360Z,18.36
2018-09-14T01:20:12.446Z,18.39
2018-09-14T01:22:41.735Z,18.35
2018-09-14T01:25:10.904Z,18.39
2018-09-14T01:27:40.030Z,18.43
2018-09-14T01:30:09.382Z,18.52
2018-09-14T01:32:38.794Z,18.38
2018-09-14T01:35:13.013Z,18.45
2018-09-14T01:37:42.300Z,18.48
2018-09-14T01:40:11.636Z,18.54
2018-09-14T01:42:40.536Z,18.60
2018-09-14T01:45:09.885Z,18.64
2018-09-14T01:47:39.070Z,18.44
2018-09-14T01:50:08.369Z,18.73
2018-09-14T01:52:37.452Z,18.54
2018-09-14T01:55:07.032Z,18.41
2018-09-14T01:57:36.321Z,18.40
2018-09-14T02:00:06.114Z,18.33
2018-09-14T02:02:35.337Z,18.32
2018-09-14T02:05:04.300Z,18.25
2018-09-14T02:07:33.324Z,18.14
2018-09-14T02:10:02.260Z,18.09
2018-09-14T02:12:31.298Z,18.00
2018-09-14T02:15:00.235Z,17.97
2018-09-14T02:17:29.352Z,17.89
2018-09-14T02:19:58.433Z,17.83
2018-09-14T02:22:27.563Z,17.82
2018-09-14T02:24:56.523Z,17.73
2018-09-14T02:27:25.541Z,17.77
2018-09-14T02:29:54.504Z,17.65
2018-09-14T02:32:23.493Z,17.59
2018-09-14T02:34:52.588Z,17.63
2018-09-14T02:37:21.781Z,17.70
2018-09-14T02:39:50.912Z,17.72
2018-09-14T02:42:19.970Z,17.83
2018-09-14T02:44:49.140Z,17.76
2018-09-14T02:47:18.124Z,17.76
2018-09-14T02:49:47.162Z,17.71
2018-09-14T02:52:16.345Z,17.70
2018-09-14T02:54:45.772Z,17.72
2018-09-14T02:57:15.090Z,17.80
2018-09-14T02:59:44.348Z,17.80
2018-09-14T03:02:13.740Z,17.80
2018-09-14T03:04:42.738Z,17.82
2018-09-14T03:07:11.921Z,17.74
2018-09-14T03:09:41.228Z,17.79
2018-09-14T03:12:10.387Z,17.73
2018-09-14T03:14:39.603Z,17.62
2018-09-14T03:17:08.736Z,17.65
2018-09-14T03:19:37.772Z,17.58
2018-09-14T03:22:06.983Z,17.55
2018-09-14T03:24:36.179Z,17.72
2018-09-14T03:27:05.663Z,17.80
2018-09-14T03:29:34.720Z,17.69
2018-09-14T03:32:04.037Z,17.61
2018-09-14T03:34:33.343Z,17.60
2018-09-14T03:37:02.681Z,17.57
2018-09-14T03:39:32.016Z,17.51
2018-09-14T03:42:01.444Z,17.56
2018-09-14T03:44:30.713Z,17.61
2018-09-14T03:46:59.855Z,17.62
2018-09-14T03:49:29.156Z,17.66
2018-09-14T03:51:58.465Z,17.66
2018-09-14T03:54:27.484Z,17.71
2018-09-14T03:56:56.589Z,17.78
2018-09-14T03:59:25.546Z,17.75
2018-09-14T04:01:54.676Z,17.73
2018-09-14T04:04:24.216Z,17.70
2018-09-14T04:06:53.667Z,17.64
2018-09-14T04:09:22.858Z,17.65
2018-09-14T04:11:52.145Z,17.81
2018-09-14T04:14:21.387Z,17.68
2018-09-14T04:16:50.775Z,17.73
2018-09-14T04:19:20.154Z,17.77
2018-09-14T04:21:49.428Z,17.68
2018-09-14T04:24:18.802Z,17.66
2018-09-14T04:26:47.868Z,17.70
2018-09-14T04:29:17.193Z,17.75
2018-09-14T04:31:46.431Z,17.68
2018-09-14T04:34:15.452Z,17.66
2018-09-14T04:36:44.724Z,17.68
2018-09-14T04:39:13.661Z,17.83
2018-09-14T04:41:42.564Z,18.00
2018-09-14T04:44:11.774Z,18.02
2018-09-14T04:46:40.720Z,18.08
2018-09-14T04:49:09.906Z,18.11
2018-09-14T04:51:38.903Z,18.18
2018-09-14T04:54:07.945Z,18.29
2018-09-14T04:56:36.998Z,18.39
2018-09-14T04:59:06.095Z,18.46
2018-09-14T05:01:35.134Z,18.58
2018-09-14T05:04:04.281Z,18.64
2018-09-14T05:06:33.275Z,18.77
2018-09-14T05:09:02.288Z,18.75
2018-09-14T05:11:31.296Z,19.00
2018-09-14T05:14:00.397Z,19.08
2018-09-14T05:16:29.376Z,19.20
2018-09-14T05:18:58.415Z,19.19
2018-09-14T05:21:27.551Z,19.37
2018-09-14T05:23:56.753Z,19.36
2018-09-14T05:26:26.012Z,19.35
2018-09-14T05:28:55.348Z,19.46
2018-09-14T05:31:24.509Z,19.46
2018-09-14T05:33:53.576Z,19.60
2018-09-14T05:36:22.571Z,19.75
2018-09-14T05:38:51.491Z,19.82
2018-09-14T05:41:20.814Z,19.97
2018-09-14T05:43:50.065Z,20.17
2018-09-14T05:46:19.077Z,20.27
2018-09-14T05:48:48.004Z,20.39
2018-09-14T05:51:17.523Z,20.58
2018-09-14T05:53:46.500Z,20.77
2018-09-14T05:56:15.568Z,20.89
2018-09-14T05:58:44.863Z,21.21
2018-09-14T06:01:14.058Z,21.34
2018-09-14T06:03:43.196Z,21.48
2018-09-14T06:06:12.188Z,21.55
2018-09-14T06:08:41.079Z,21.76
2018-09-14T06:11:10.199Z,22.08
2018-09-14T06:13:39.127Z,22.05
2018-09-14T06:16:08.511Z,21.78
2018-09-14T06:18:37.881Z,21.95
2018-09-14T06:21:06.892Z,22.06
2018-09-14T06:23:35.831Z,22.25
2018-09-14T06:26:04.817Z,22.84
2018-09-14T06:28:33.856Z,22.81
2018-09-14T06:31:02.836Z,23.30
2018-09-14T06:33:32.109Z,22.84
2018-09-14T06:36:01.031Z,23.21
2018-09-14T06:38:30.164Z,23.04
2018-09-14T06:40:59.566Z,23.46
2018-09-14T06:43:28.491Z,22.78
2018-09-14T06:45:57.404Z,22.75
2018-09-14T06:48:26.303Z,22.48
2018-09-14T06:50:55.276Z,22.83
2018-09-14T06:53:24.311Z,23.17
2018-09-14T06:55:53.337Z,23.57
2018-09-14T06:58:22.336Z,23.62
2018-09-14T07:00:51.212Z,23.37
2018-09-14T07:03:20.987Z,23.61
2018-09-14T07:05:49.859Z,23.70
2018-09-14T07:08:19.836Z,23.24
2018-09-14T07:10:48.931Z,23.29
2018-09-14T07:13:18.511Z,23.73
2018-09-14T07:15:47.861Z,23.85
2018-09-14T07:18:17.644Z,23.69
2018-09-14T07:20:47.184Z,23.67
2018-09-14T07:23:16.375Z,24.11
2018-09-14T07:25:45.840Z,23.80
2018-09-14T07:28:14.769Z,23.63
2018-09-14T07:30:43.858Z,23.97
2018-09-14T07:33:12.941Z,23.70
2018-09-14T07:35:41.761Z,23.82
2018-09-14T07:38:10.826Z,23.81
2018-09-14T07:40:39.815Z,23.62
2018-09-14T07:43:08.864Z,23.75
2018-09-14T07:45:37.883Z,24.27
2018-09-14T07:48:06.930Z,24.27
2018-09-14T07:50:36.316Z,24.77
2018-09-14T07:53:05.616Z,24.76
2018-09-14T07:55:34.570Z,24.31
2018-09-14T07:58:03.508Z,24.45
2018-09-14T08:00:32.784Z,24.21
2018-09-14T08:03:01.675Z,24.66
2018-09-14T08:05:30.724Z,24.95
2018-09-14T08:07:59.892Z,24.54
2018-09-14T08:10:28.765Z,24.60
2018-09-14T08:12:57.945Z,24.92
2018-09-14T08:15:26.988Z,24.66
2018-09-14T08:17:56.032Z,24.56
2018-09-14T08:20:25.125Z,24.78
2018-09-14T08:22:54.043Z,24.93
2018-09-14T08:25:23.093Z,24.79
2018-09-14T08:27:52.312Z,25.28
2018-09-14T08:30:21.472Z,25.37
2018-09-14T08:32:50.344Z,25.66
2018-09-14T08:35:19.433Z,25.62
2018-09-14T08:37:48.675Z,25.42
2018-09-14T08:40:17.888Z,25.43
2018-09-14T08:42:46.880Z,25.66
2018-09-14T08:45:15.848Z,25.43
2018-09-14T08:47:44.799Z,25.74
2018-09-14T08:50:13.819Z,25.92
2018-09-14T08:52:42.708Z,25.55
2018-09-14T08:55:11.811Z,25.89
2018-09-14T08:57:41.316Z,25.75
2018-09-14T09:00:10.844Z,25.51
2018-09-14T09:02:40.244Z,25.33
2018-09-14T09:05:09.492Z,25.72
2018-09-14T09:07:38.499Z,25.77
2018-09-14T09:10:07.490Z,25.23
2018-09-14T09:12:36.775Z,25.68
2018-09-14T09:15:05.955Z,25.74
2018-09-14T09:17:35.134Z,25.92
2018-09-14T09:20:04.281Z,25.67
2018-09-14T09:22:33.471Z,25.70
2018-09-14T09:25:02.702Z,25.59
2018-09-14T09:27:31.636Z,25.82
2018-09-14T09:30:00.623Z,26.23
2018-09-14T09:32:29.548Z,26.47
2018-09-14T09:34:58.860Z,25.91
2018-09-14T09:37:27.746Z,25.85
2018-09-14T09:39:57.172Z,25.89
2018-09-14T09:42:26.053Z,26.15
2018-09-14T09:44:55.060Z,26.39
2018-09-14T09:47:24.077Z,26.55
2018-09-14T09:49:53.299Z,26.74
2018-09-14T09:52:22.316Z,26.94
2018-09-14T09:54:51.864Z,26.79
2018-09-14T09:57:21.282Z,26.38
2018-09-14T09:59:50.351Z,25.94
2018-09-14T10:02:24.724Z,26.54
2018-09-14T10:04:59.128Z,26.61
2018-09-14T10:07:28.738Z,26.11
2018-09-14T10:09:57.885Z,26.23
2018-09-14T10:12:26.942Z,26.60
2018-09-14T10:14:55.980Z,27.09
2018-09-14T10:17:25.096Z,26.87
2018-09-14T10:19:54.159Z,26.27
2018-09-14T10:22:23.320Z,27.22
2018-09-14T10:24:52.389Z,27.20
2018-09-14T10:27:21.283Z,27.08
2018-09-14T10:29:50.315Z,27.14
2018-09-14T10:32:19.485Z,27.36
2018-09-14T10:34:48.488Z,26.85
2018-09-14T10:37:17.469Z,26.98
2018-09-14T10:39:46.568Z,27.82
2018-09-14T10:42:15.523Z,27.64
2018-09-14T10:44:44.485Z,28.47
2018-09-14T10:47:13.700Z,28.45
2018-09-14T10:49:43.464Z,28.56
2018-09-14T10:52:12.854Z,28.49
2018-09-14T10:54:41.811Z,29.13
2018-09-14T10:57:10.667Z,28.94
2018-09-14T10:59:39.596Z,28.97
2018-09-14T11:02:08.616Z,27.73
2018-09-14T11:04:37.436Z,27.72
2018-09-14T11:07:06.541Z,27.33
2018-09-14T11:09:35.606Z,28.05
2018-09-14T11:12:04.805Z,27.77
2018-09-14T11:14:33.967Z,28.47
2018-09-14T11:17:03.164Z,28.27
2018-09-14T11:19:32.212Z,28.29
2018-09-14T11:22:01.268Z,27.38
2018-09-14T11:24:30.280Z,27.78
2018-09-14T11:26:59.477Z,27.92
2018-09-14T11:29:28.378Z,27.86
2018-09-14T11:31:57.550Z,28.27
2018-09-14T11:34:27.121Z,28.02
2018-09-14T11:36:55.999Z,27.25
2018-09-14T11:39:24.954Z,26.98
2018-09-14T11:41:53.984Z,27.36
2018-09-14T11:44:23.293Z,27.52
2018-09-14T11:46:52.401Z,27.09
2018-09-14T11:49:21.479Z,27.52
2018-09-14T11:51:50.541Z,27.34
2018-09-14T11:54:19.477Z,27.38
2018-09-14T11:56:48.672Z,27.69
2018-09-14T11:59:17.899Z,27.68
2018-09-14T12:01:46.922Z,27.87
2018-09-14T12:04:15.993Z,27.43
2018-09-14T12:06:44.988Z,27.29
2018-09-14T12:09:13.864Z,27.56
2018-09-14T12:11:42.954Z,27.63
2018-09-14T12:14:12.355Z,27.41
2018-09-14T12:16:41.409Z,27.18
2018-09-14T12:19:10.496Z,26.91
2018-09-14T12:21:39.379Z,26.86
2018-09-14T12:24:08.380Z,26.76
2018-09-14T12:26:37.492Z,27.18
2018-09-14T12:29:06.876Z,27.59
2018-09-14T12:31:35.781Z,27.39
2018-09-14T12:34:05.116Z,27.27
2018-09-14T12:36:34.185Z,27.67
2018-09-14T12:39:03.351Z,27.95
2018-09-14T12:41:32.537Z,28.02
2018-09-14T12:44:01.391Z,28.26
2018-09-14T12:46:30.345Z,28.29
2018-09-14T12:48:59.664Z,27.70
2018-09-14T12:51:29.900Z,27.52
2018-09-14T12:53:58.735Z,27.66
2018-09-14T12:56:27.924Z,28.14
2018-09-14T12:58:56.824Z,28.15
2018-09-14T13:01:26.524Z,28.32
2018-09-14T13:03:55.472Z,28.41
2018-09-14T13:06:25.107Z,28.02
2018-09-14T13:08:54.059Z,28.49
2018-09-14T13:11:22.971Z,28.81
2018-09-14T13:13:52.301Z,28.74
2018-09-14T13:16:21.255Z,28.24
2018-09-14T13:18:50.428Z,28.66
2018-09-14T13:21:19.721Z,29.02
2018-09-14T13:23:48.736Z,29.37
2018-09-14T13:26:17.704Z,29.58
2018-09-14T13:28:47.029Z,28.83
2018-09-14T13:31:15.859Z,29.56
2018-09-14T13:33:44.918Z,29.58
2018-09-14T13:36:13.891Z,28.76
2018-09-14T13:38:42.831Z,28.55
2018-09-14T13:41:11.816Z,28.43
2018-09-14T13:43:40.707Z,29.51
2018-09-14T13:46:09.706Z,29.80
2018-09-14T13:48:38.560Z,29.58
2018-09-14T13:51:07.043Z,29.46
2018-09-14T13:53:36.381Z,29.19
2018-09-14T13:56:05.309Z,28.94
2018-09-14T13:58:34.662Z,28.80
2018-09-14T14:01:03.795Z,29.74
2018-09-14T14:03:32.628Z,30.08
2018-09-14T14:06:01.579Z,30.54
2018-09-14T14:08:31.076Z,30.65
2018-09-14T14:11:00.065Z,30.17
2018-09-14T14:13:29.082Z,30.42
2018-09-14T14:15:58.076Z,29.98
2018-09-14T14:18:27.288Z,29.88
2018-09-14T14:20:56.244Z,29.83
2018-09-14T14:23:25.275Z,29.18
2018-09-14T14:25:54.584Z,29.20
2018-09-14T14:28:23.777Z,30.03
2018-09-14T14:30:53.056Z,28.97
2018-09-14T14:33:22.063Z,26.60
2018-09-14T14:35:51.036Z,26.70
2018-09-14T14:38:20.456Z,25.55
2018-09-14T14:40:49.495Z,25.44
2018-09-14T14:43:18.767Z,25.14
2018-09-14T14:45:48.023Z,25.23
2018-09-14T14:48:17.351Z,24.91
2018-09-14T14:50:46.512Z,24.84
2018-09-14T14:53:15.960Z,25.30
2018-09-14T14:55:44.883Z,24.98
2018-09-14T14:58:13.871Z,24.99
2018-09-14T15:00:42.888Z,24.37
2018-09-14T15:03:11.952Z,24.13
2018-09-14T15:05:40.859Z,24.42
2018-09-14T15:08:09.683Z,24.34
2018-09-14T15:10:38.743Z,24.67
2018-09-14T15:13:07.758Z,24.57
2018-09-14T15:15:37.109Z,24.01
2018-09-14T15:18:06.363Z,23.71
2018-09-14T15:20:35.321Z,24.01
2018-09-14T15:23:04.511Z,24.06
2018-09-14T15:25:33.397Z,24.19
2018-09-14T15:28:02.376Z,24.06
2018-09-14T15:30:31.440Z,24.22
2018-09-14T15:33:00.412Z,23.76
2018-09-14T15:35:29.415Z,23.82
2018-09-14T15:37:58.375Z,23.85
2018-09-14T15:40:27.509Z,23.65
2018-09-14T15:42:56.580Z,23.92
2018-09-14T15:45:25.623Z,23.80
2018-09-14T15:47:54.580Z,24.03
2018-09-14T15:50:23.605Z,23.80
2018-09-14T15:52:52.459Z,23.94
2018-09-14T15:55:21.503Z,24.02
2018-09-14T15:57:50.543Z,24.20
2018-09-14T16:00:22.077Z,23.89
2018-09-14T16:02:52.463Z,23.69
2018-09-14T16:05:21.539Z,23.77
2018-09-14T16:07:50.636Z,24.01
2018-09-14T16:10:19.680Z,24.00
2018-09-14T16:12:48.528Z,23.92
2018-09-14T16:15:17.447Z,24.08
2018-09-14T16:17:46.537Z,24.07
2018-09-14T16:20:15.528Z,24.27
2018-09-14T16:22:44.505Z,23.89
2018-09-14T16:25:13.419Z,23.63
2018-09-14T16:27:42.741Z,23.98
2018-09-14T16:30:12.017Z,23.50
2018-09-14T16:32:40.907Z,23.87
2018-09-14T16:35:10.182Z,23.52
2018-09-14T16:37:39.400Z,23.46
2018-09-14T16:40:08.660Z,23.55
2018-09-14T16:42:37.487Z,23.44
2018-09-14T16:45:06.608Z,23.50
2018-09-14T16:47:35.688Z,23.32
2018-09-14T16:50:04.596Z,23.31
2018-09-14T16:52:33.517Z,23.51
2018-09-14T16:55:02.534Z,23.35
2018-09-14T16:57:31.499Z,23.89
2018-09-14T17:00:00.336Z,23.58
2018-09-14T17:02:29.399Z,23.38
2018-09-14T17:04:58.408Z,23.27
2018-09-14T17:07:27.258Z,23.25
2018-09-14T17:09:56.337Z,23.26
2018-09-14T17:12:25.236Z,23.24
2018-09-14T17:14:54.250Z,23.33
2018-09-14T17:17:23.132Z,23.10
2018-09-14T17:19:52.306Z,23.09
2018-09-14T17:22:21.560Z,23.11
2018-09-14T17:24:50.525Z,23.19
2018-09-14T17:27:19.423Z,23.22
2018-09-14T17:29:48.569Z,23.18
2018-09-14T17:32:17.576Z,23.33
2018-09-14T17:34:46.641Z,23.16
2018-09-14T17:37:15.612Z,23.08
2018-09-14T17:39:44.641Z,23.15
2018-09-14T17:42:13.636Z,23.12
2018-09-14T17:44:42.554Z,23.15
2018-09-14T17:47:11.504Z,23.21
2018-09-14T17:49:40.594Z,23.19
2018-09-14T17:52:10.048Z,23.17
2018-09-14T17:54:39.052Z,23.16
2018-09-14T17:57:08.148Z,23.16
2018-09-14T17:59:37.096Z,23.14
2018-09-14T18:02:06.078Z,23.23
2018-09-14T18:04:35.132Z,23.41
2018-09-14T18:07:04.016Z,23.16
2018-09-14T18:09:33.052Z,23.06
2018-09-14T18:12:01.897Z,22.97
2018-09-14T18:14:30.787Z,22.97
2018-09-14T18:17:01.046Z,23.01
2018-09-14T18:19:29.969Z,23.04
2018-09-14T18:21:58.964Z,22.86
2018-09-14T18:24:27.980Z,22.76
2018-09-14T18:26:56.962Z,22.68
2018-09-14T18:29:25.948Z,22.62
2018-09-14T18:31:55.207Z,22.56
2018-09-14T18:34:24.116Z,22.65
2018-09-14T18:36:53.180Z,22.56
2018-09-14T18:39:22.060Z,22.46
2018-09-14T18:41:50.959Z,22.37
2018-09-14T18:44:19.839Z,22.37
2018-09-14T18:46:48.690Z,22.38
2018-09-14T18:49:17.727Z,22.41
2018-09-14T18:51:46.712Z,22.38
2018-09-14T18:54:15.811Z,22.34
2018-09-14T18:56:44.892Z,22.46
2018-09-14T18:59:13.747Z,22.36
2018-09-14T19:01:43.192Z,22.48
2018-09-14T19:04:12.124Z,22.40
2018-09-14T19:06:41.281Z,22.32
2018-09-14T19:09:11.934Z,22.22
2018-09-14T19:11:41.167Z,22.17
2018-09-14T19:14:10.483Z,22.09
2018-09-14T19:16:39.592Z,22.10
2018-09-14T19:19:08.597Z,22.11
2018-09-14T19:21:37.735Z,22.00
2018-09-14T19:24:06.959Z,21.89
2018-09-14T19:26:36.274Z,21.82
2018-09-14T19:29:05.109Z,21.80
2018-09-14T19:31:34.667Z,21.83
2018-09-14T19:34:04.012Z,21.75
2018-09-14T19:36:33.100Z,21.69
2018-09-14T19:39:02.500Z,21.69
2018-09-14T19:41:31.584Z,21.66
2018-09-14T19:44:01.144Z,21.63
2018-09-14T19:46:30.133Z,21.58
2018-09-14T19:48:59.744Z,21.58
2018-09-14T19:51:28.765Z,21.56
2018-09-14T19:53:57.798Z,21.58
2018-09-14T19:56:26.993Z,21.61
2018-09-14T19:58:55.839Z,21.62
2018-09-14T20:01:24.913Z,21.68
2018-09-14T20:03:54.180Z,21.77
2018-09-14T20:06:23.432Z,21.77
2018-09-14T20:08:52.892Z,21.61
2018-09-14T20:11:22.076Z,21.59
2018-09-14T20:13:51.402Z,21.55
2018-09-14T20:16:20.444Z,21.53
2018-09-14T20:18:49.740Z,21.56
2018-09-14T20:21:18.844Z,21.63
2018-09-14T20:23:47.782Z,21.55
2018-09-14T20:26:17.013Z,21.75
2018-09-14T20:28:46.175Z,21.66
2018-09-14T20:31:15.179Z,21.73
2018-09-14T20:33:44.519Z,21.47
2018-09-14T20:36:13.580Z,21.32
2018-09-14T20:38:42.554Z,21.23
2018-09-14T20:41:11.771Z,21.22
2018-09-14T20:43:40.656Z,21.11
2018-09-14T20:46:10.292Z,21.06
2018-09-14T20:48:39.641Z,21.03
2018-09-14T20:51:09.088Z,21.08
2018-09-14T20:53:38.568Z,21.13
2018-09-14T20:56:08.040Z,20.94
2018-09-14T20:58:37.240Z,20.98
2018-09-14T21:01:06.211Z,20.89
2018-09-14T21:03:35.328Z,20.74
2018-09-14T21:06:04.728Z,20.78
2018-09-14T21:08:34.105Z,20.72
2018-09-14T21:11:03.260Z,20.64
2018-09-14T21:13:32.456Z,20.64
2018-09-14T21:16:01.324Z,20.60
2018-09-14T21:18:30.240Z,20.67
2018-09-14T21:20:59.206Z,20.72
2018-09-14T21:23:28.554Z,20.78
2018-09-14T21:25:57.521Z,20.78
2018-09-14T21:28:26.504Z,20.87
2018-09-14T21:30:55.688Z,20.85
2018-09-14T21:33:24.884Z,20.91
2018-09-14T21:35:54.728Z,20.76
2018-09-14T21:38:23.683Z,20.80
2018-09-14T21:40:52.624Z,20.77
2018-09-14T21:43:21.841Z,20.84
2018-09-14T21:45:51.196Z,20.84
2018-09-14T21:48:20.157Z,20.89
2018-09-14T21:50:49.168Z,20.89
2018-09-14T21:53:18.375Z,20.89
2018-09-14T21:55:47.376Z,20.81
2018-09-14T21:58:16.321Z,20.76
2018-09-14T22:00:50.209Z,20.72
2018-09-14T22:03:19.088Z,20.65
2018-09-14T22:05:48.400Z,20.63
2018-09-14T22:08:17.372Z,20.66
2018-09-14T22:10:46.316Z,20.64
2018-09-14T22:13:15.223Z,20.60
2018-09-14T22:15:44.513Z,20.52
2018-09-14T22:18:13.692Z,20.50
2018-09-14T22:20:43.049Z,20.53
2018-09-14T22:23:12.061Z,20.41
2018-09-14T22:25:41.102Z,20.40
2018-09-14T22:28:10.959Z,20.39
2018-09-14T22:30:40.133Z,20.40
2018-09-14T22:33:09.227Z,20.43
2018-09-14T22:35:38.324Z,20.48
2018-09-14T22:38:07.752Z,20.42
2018-09-14T22:40:36.664Z,20.39
2018-09-14T22:43:05.763Z,20.36
2018-09-14T22:45:34.726Z,20.37
2018-09-14T22:48:03.684Z,20.35
2018-09-14T22:50:32.875Z,20.37
2018-09-14T22:53:02.215Z,20.33
2018-09-14T22:55:31.162Z,20.32
2018-09-14T22:58:00.260Z,20.34
2018-09-14T23:00:34.473Z,20.32
2018-09-14T23:03:03.732Z,20.34
2018-09-14T23:05:32.911Z,20.35
2018-09-14T23:08:02.096Z,20.33
2018-09-14T23:10:31.108Z,20.34
2018-09-14T23:13:00.063Z,20.31
2018-09-14T23:15:29.216Z,20.36
2018-09-14T23:17:59.193Z,20.32
2018-09-14T23:20:28.823Z,20.28
2018-09-14T23:22:57.952Z,20.26
2018-09-14T23:25:27.224Z,20.24
2018-09-14T23:27:56.456Z,20.21
2018-09-14T23:30:25.312Z,20.22
2018-09-14T23:32:54.346Z,20.16
2018-09-14T23:35:23.315Z,20.24
2018-09-14T23:37:52.255Z,20.25
2018-09-14T23:40:21.091Z,20.28
2018-09-14T23:42:49.923Z,20.25
2018-09-14T23:45:19.019Z,20.33
2018-09-14T23:47:48.104Z,20.32
2018-09-14T23:50:16.992Z,20.32
2018-09-14T23:52:46.265Z,20.26
2018-09-14T23:55:15.227Z,20.23
2018-09-14T23:57:44.547Z,20.24
